Marquette, MI

2:32 PM EST on December 26, 2014 (GMT -0500)
Munising | Change Station
CLOSE
Current Station
Airport
Location: Munising,
Elevation: 614 ft
Nearby Weather Stations

Elev 614 ft 46.41 °N, 86.65 °W | Updated 36 minutes ago

Overcast
Overcast
36 °F
Feels Like 36 °F
N
0
Wind Variable Wind from North
Gusts 6 mph

Today
High -- | Low -- °F
--% Chance of Precip.
Yesterday
High -- | Low -- °F
Precip. -- in
8:32 AM 5:07 PM
Waxing Crescent, 28% visible
Pressure 29.99 in
Visibility -9999.0 miles
Clouds
Dew Point 30 °F
Humidity 79%
Rainfall 0.01 in
Snow Depth Not available.
UV Not available.
Pollen .10 out of 12
Air Quality Not available.
Flu Activity Not available.
METAR KP53 261856Z AUTO 00000KT 02/M01 A2997 RMK AO1 SLP156 T00221011

More Conditions Fewer Conditions

Pressure 29.99 in
Visibility -9999.0 miles
Clouds
Dew Point 30 °F
Humidity 79%
Rainfall 0.01 in
Snow Depth Not available.
UV Not available.
Pollen .10 out of 12
Air Quality Not available.
Flu Activity Not available.
METAR KP53 261856Z AUTO 00000KT 02/M01 A2997 RMK AO1 SLP156 T00221011

More Conditions Fewer Conditions

10-Day Weather Forecast

Almanac

Astronomy

Dec. 26, 2014 Rise Set
Actual Time
Civil Twilight
Nautical Twilight
Astronomical Twilight
Moon
Length of Visible Light
Length of Day
Tomorrow will be .
, % of the Moon is Illuminated

Today's Extremes

State Highs State Lows

Community

WunderPhotos

Upload Photos

1,780,675 photos uploaded!

WunderBlogs® & News

Nearby

Air Quality

  Air Quality AQ Index Pollutant
Not available.

Snow Depth

Station Depth Elevation

Earthquake Activity

City Distance Mag. Time & Date
Minimum magnitude displayed is 2.5.

Coastal Water Temperatures

Place Temperature

Nearby Weather Stations